sensor_id;sensor_type;location;lat;lon;timestamp;pressure;altitude;pressure_sealevel;temperature
12854;BMP180;6495;51.808;7.478;2023-01-31T00:02:30;101747.00;;;4.70
12854;BMP180;6495;51.808;7.478;2023-01-31T00:04:58;101746.00;;;4.70
12854;BMP180;6495;51.808;7.478;2023-01-31T00:07:27;101735.00;;;4.70
12854;BMP180;6495;51.808;7.478;2023-01-31T00:09:55;101743.00;;;4.70
12854;BMP180;6495;51.808;7.478;2023-01-31T00:12:23;101740.00;;;4.70
12854;BMP180;6495;51.808;7.478;2023-01-31T00:14:51;101738.00;;;4.60
12854;BMP180;6495;51.808;7.478;2023-01-31T00:17:19;101741.00;;;4.60
12854;BMP180;6495;51.808;7.478;2023-01-31T00:19:49;101747.00;;;4.60
12854;BMP180;6495;51.808;7.478;2023-01-31T00:22:17;101744.00;;;4.60
12854;BMP180;6495;51.808;7.478;2023-01-31T00:24:45;101745.00;;;4.60
12854;BMP180;6495;51.808;7.478;2023-01-31T00:27:13;101732.00;;;4.50
12854;BMP180;6495;51.808;7.478;2023-01-31T00:29:41;101744.00;;;4.50
12854;BMP180;6495;51.808;7.478;2023-01-31T00:32:09;101735.00;;;4.50
12854;BMP180;6495;51.808;7.478;2023-01-31T00:34:37;101740.00;;;4.40
12854;BMP180;6495;51.808;7.478;2023-01-31T00:37:07;101730.00;;;4.40
12854;BMP180;6495;51.808;7.478;2023-01-31T00:39:35;101736.00;;;4.40
12854;BMP180;6495;51.808;7.478;2023-01-31T00:42:04;101725.00;;;4.40
12854;BMP180;6495;51.808;7.478;2023-01-31T00:44:33;101728.00;;;4.40
12854;BMP180;6495;51.808;7.478;2023-01-31T00:47:02;101736.00;;;4.40
12854;BMP180;6495;51.808;7.478;2023-01-31T00:49:30;101729.00;;;4.40
12854;BMP180;6495;51.808;7.478;2023-01-31T00:51:59;101725.00;;;4.30
12854;BMP180;6495;51.808;7.478;2023-01-31T00:54:28;101734.00;;;4.30
12854;BMP180;6495;51.808;7.478;2023-01-31T00:56:56;101731.00;;;4.30
12854;BMP180;6495;51.808;7.478;2023-01-31T00:59:26;101740.00;;;4.30
12854;BMP180;6495;51.808;7.478;2023-01-31T01:01:54;101743.00;;;4.30
12854;BMP180;6495;51.808;7.478;2023-01-31T01:04:22;101741.00;;;4.30
12854;BMP180;6495;51.808;7.478;2023-01-31T01:06:50;101748.00;;;4.30
12854;BMP180;6495;51.808;7.478;2023-01-31T01:09:19;101725.00;;;4.20
12854;BMP180;6495;51.808;7.478;2023-01-31T01:11:50;101734.00;;;4.20
12854;BMP180;6495;51.808;7.478;2023-01-31T01:14:18;101741.00;;;4.20
12854;BMP180;6495;51.808;7.478;2023-01-31T01:16:46;101740.00;;;4.20
12854;BMP180;6495;51.808;7.478;2023-01-31T01:19:17;101733.00;;;4.20
12854;BMP180;6495;51.808;7.478;2023-01-31T01:21:46;101737.00;;;4.20
12854;BMP180;6495;51.808;7.478;2023-01-31T01:24:18;101735.00;;;4.10
12854;BMP180;6495;51.808;7.478;2023-01-31T01:26:46;101719.00;;;4.10
12854;BMP180;6495;51.808;7.478;2023-01-31T01:29:16;101724.00;;;4.10
12854;BMP180;6495;51.808;7.478;2023-01-31T01:31:44;101717.00;;;4.10
12854;BMP180;6495;51.808;7.478;2023-01-31T01:34:14;101721.00;;;4.10
12854;BMP180;6495;51.808;7.478;2023-01-31T01:36:44;101727.00;;;4.00
12854;BMP180;6495;51.808;7.478;2023-01-31T01:39:15;101723.00;;;4.00
12854;BMP180;6495;51.808;7.478;2023-01-31T01:41:45;101720.00;;;4.00
12854;BMP180;6495;51.808;7.478;2023-01-31T01:44:46;101714.00;;;4.10
12854;BMP180;6495;51.808;7.478;2023-01-31T01:47:29;101729.00;;;4.10
12854;BMP180;6495;51.808;7.478;2023-01-31T01:50:06;101724.00;;;4.00
12854;BMP180;6495;51.808;7.478;2023-01-31T01:52:42;101713.00;;;4.00
12854;BMP180;6495;51.808;7.478;2023-01-31T01:55:21;101712.00;;;4.00
12854;BMP180;6495;51.808;7.478;2023-01-31T01:57:54;101716.00;;;4.00
12854;BMP180;6495;51.808;7.478;2023-01-31T02:00:29;101717.00;;;4.00
12854;BMP180;6495;51.808;7.478;2023-01-31T02:03:00;101722.00;;;4.00
12854;BMP180;6495;51.808;7.478;2023-01-31T02:05:35;101725.00;;;4.00
12854;BMP180;6495;51.808;7.478;2023-01-31T02:08:04;101734.00;;;4.00
12854;BMP180;6495;51.808;7.478;2023-01-31T02:10:43;101733.00;;;4.00
12854;BMP180;6495;51.808;7.478;2023-01-31T02:13:14;101738.00;;;4.00
12854;BMP180;6495;51.808;7.478;2023-01-31T02:15:45;101753.00;;;4.00
12854;BMP180;6495;51.808;7.478;2023-01-31T02:18:14;101737.00;;;3.90
12854;BMP180;6495;51.808;7.478;2023-01-31T02:21:35;101761.00;;;4.00
12854;BMP180;6495;51.808;7.478;2023-01-31T02:24:52;101768.00;;;4.00
12854;BMP180;6495;51.808;7.478;2023-01-31T02:31:23;101760.00;;;3.90
12854;BMP180;6495;51.808;7.478;2023-01-31T02:34:03;101766.00;;;3.90
12854;BMP180;6495;51.808;7.478;2023-01-31T02:36:54;101755.00;;;3.90
12854;BMP180;6495;51.808;7.478;2023-01-31T02:39:32;101751.00;;;3.90
12854;BMP180;6495;51.808;7.478;2023-01-31T02:42:13;101756.00;;;3.90
12854;BMP180;6495;51.808;7.478;2023-01-31T02:44:51;101760.00;;;3.90
12854;BMP180;6495;51.808;7.478;2023-01-31T02:47:50;101755.00;;;3.90
12854;BMP180;6495;51.808;7.478;2023-01-31T02:50:28;101761.00;;;3.90
12854;BMP180;6495;51.808;7.478;2023-01-31T02:53:03;101760.00;;;3.90
12854;BMP180;6495;51.808;7.478;2023-01-31T02:55:37;101760.00;;;3.90
12854;BMP180;6495;51.808;7.478;2023-01-31T02:58:29;101759.00;;;3.90
12854;BMP180;6495;51.808;7.478;2023-01-31T03:01:01;101758.00;;;3.90
12854;BMP180;6495;51.808;7.478;2023-01-31T03:03:34;101750.00;;;3.90
12854;BMP180;6495;51.808;7.478;2023-01-31T03:06:50;101749.00;;;4.00
12854;BMP180;6495;51.808;7.478;2023-01-31T03:09:36;101740.00;;;3.90
12854;BMP180;6495;51.808;7.478;2023-01-31T03:12:26;101730.00;;;4.00
12854;BMP180;6495;51.808;7.478;2023-01-31T03:15:12;101722.00;;;3.90
12854;BMP180;6495;51.808;7.478;2023-01-31T03:17:56;101730.00;;;3.90
12854;BMP180;6495;51.808;7.478;2023-01-31T03:20:34;101723.00;;;3.90
12854;BMP180;6495;51.808;7.478;2023-01-31T03:23:10;101712.00;;;3.80
12854;BMP180;6495;51.808;7.478;2023-01-31T03:25:39;101712.00;;;3.80
12854;BMP180;6495;51.808;7.478;2023-01-31T03:28:18;101716.00;;;3.80
12854;BMP180;6495;51.808;7.478;2023-01-31T03:30:53;101710.00;;;3.80
12854;BMP180;6495;51.808;7.478;2023-01-31T03:33:28;101708.00;;;3.80
12854;BMP180;6495;51.808;7.478;2023-01-31T03:36:09;101696.00;;;3.80
12854;BMP180;6495;51.808;7.478;2023-01-31T03:38:52;101700.00;;;3.80
12854;BMP180;6495;51.808;7.478;2023-01-31T03:41:29;101682.00;;;3.80
12854;BMP180;6495;51.808;7.478;2023-01-31T03:44:05;101690.00;;;3.80
12854;BMP180;6495;51.808;7.478;2023-01-31T03:46:42;101684.00;;;3.80
12854;BMP180;6495;51.808;7.478;2023-01-31T03:49:14;101677.00;;;3.80
12854;BMP180;6495;51.808;7.478;2023-01-31T03:51:50;101672.00;;;3.80
12854;BMP180;6495;51.808;7.478;2023-01-31T03:54:25;101670.00;;;3.90
12854;BMP180;6495;51.808;7.478;2023-01-31T03:57:00;101666.00;;;3.90
12854;BMP180;6495;51.808;7.478;2023-01-31T03:59:35;101659.00;;;3.90
12854;BMP180;6495;51.808;7.478;2023-01-31T04:02:09;101653.00;;;3.90
12854;BMP180;6495;51.808;7.478;2023-01-31T04:04:44;101673.00;;;3.90
12854;BMP180;6495;51.808;7.478;2023-01-31T04:07:15;101666.00;;;3.90
12854;BMP180;6495;51.808;7.478;2023-01-31T04:09:47;101660.00;;;3.90
12854;BMP180;6495;51.808;7.478;2023-01-31T04:12:15;101665.00;;;4.00
12854;BMP180;6495;51.808;7.478;2023-01-31T04:14:43;101664.00;;;4.00
12854;BMP180;6495;51.808;7.478;2023-01-31T04:17:12;101656.00;;;4.00
12854;BMP180;6495;51.808;7.478;2023-01-31T04:19:40;101657.00;;;4.00
12854;BMP180;6495;51.808;7.478;2023-01-31T04:22:08;101653.00;;;4.00
12854;BMP180;6495;51.808;7.478;2023-01-31T04:24:36;101659.00;;;4.00
12854;BMP180;6495;51.808;7.478;2023-01-31T04:27:06;101642.00;;;4.00
12854;BMP180;6495;51.808;7.478;2023-01-31T04:29:34;101646.00;;;4.00
12854;BMP180;6495;51.808;7.478;2023-01-31T04:32:02;101655.00;;;4.00
12854;BMP180;6495;51.808;7.478;2023-01-31T04:34:31;101642.00;;;4.00
12854;BMP180;6495;51.808;7.478;2023-01-31T04:36:59;101641.00;;;4.10
12854;BMP180;6495;51.808;7.478;2023-01-31T04:39:27;101641.00;;;4.10
12854;BMP180;6495;51.808;7.478;2023-01-31T04:41:55;101638.00;;;4.10
12854;BMP180;6495;51.808;7.478;2023-01-31T04:44:25;101649.00;;;4.10
12854;BMP180;6495;51.808;7.478;2023-01-31T04:46:53;101645.00;;;4.10
12854;BMP180;6495;51.808;7.478;2023-01-31T04:49:21;101645.00;;;4.10
12854;BMP180;6495;51.808;7.478;2023-01-31T04:51:49;101644.00;;;4.10
12854;BMP180;6495;51.808;7.478;2023-01-31T04:54:17;101645.00;;;4.10
12854;BMP180;6495;51.808;7.478;2023-01-31T04:56:45;101642.00;;;4.10
12854;BMP180;6495;51.808;7.478;2023-01-31T04:59:14;101640.00;;;4.10
12854;BMP180;6495;51.808;7.478;2023-01-31T05:01:43;101641.00;;;4.10
12854;BMP180;6495;51.808;7.478;2023-01-31T05:04:11;101647.00;;;4.20
12854;BMP180;6495;51.808;7.478;2023-01-31T05:06:39;101644.00;;;4.20
12854;BMP180;6495;51.808;7.478;2023-01-31T05:09:08;101642.00;;;4.20
12854;BMP180;6495;51.808;7.478;2023-01-31T05:11:37;101641.00;;;4.10
12854;BMP180;6495;51.808;7.478;2023-01-31T05:14:05;101621.00;;;4.20
12854;BMP180;6495;51.808;7.478;2023-01-31T05:16:34;101613.00;;;4.20
12854;BMP180;6495;51.808;7.478;2023-01-31T05:19:03;101595.00;;;4.20
12854;BMP180;6495;51.808;7.478;2023-01-31T05:21:52;101596.00;;;4.20
12854;BMP180;6495;51.808;7.478;2023-01-31T05:24:38;101595.00;;;4.20
12854;BMP180;6495;51.808;7.478;2023-01-31T05:27:08;101587.00;;;4.20
12854;BMP180;6495;51.808;7.478;2023-01-31T05:29:37;101579.00;;;4.20
12854;BMP180;6495;51.808;7.478;2023-01-31T05:32:05;101567.00;;;4.10
12854;BMP180;6495;51.808;7.478;2023-01-31T05:34:35;101568.00;;;4.10
12854;BMP180;6495;51.808;7.478;2023-01-31T05:37:04;101553.00;;;4.10
12854;BMP180;6495;51.808;7.478;2023-01-31T05:39:33;101557.00;;;4.10
12854;BMP180;6495;51.808;7.478;2023-01-31T05:42:01;101558.00;;;4.10
12854;BMP180;6495;51.808;7.478;2023-01-31T05:44:30;101545.00;;;4.10
12854;BMP180;6495;51.808;7.478;2023-01-31T05:46:59;101548.00;;;4.10
12854;BMP180;6495;51.808;7.478;2023-01-31T05:49:27;101537.00;;;4.10
12854;BMP180;6495;51.808;7.478;2023-01-31T05:52:00;101537.00;;;4.10
12854;BMP180;6495;51.808;7.478;2023-01-31T05:54:29;101544.00;;;4.10
12854;BMP180;6495;51.808;7.478;2023-01-31T05:56:57;101526.00;;;4.10
12854;BMP180;6495;51.808;7.478;2023-01-31T05:59:26;101536.00;;;4.20
12854;BMP180;6495;51.808;7.478;2023-01-31T06:01:57;101522.00;;;4.20
12854;BMP180;6495;51.808;7.478;2023-01-31T06:04:25;101516.00;;;4.20
12854;BMP180;6495;51.808;7.478;2023-01-31T06:06:54;101508.00;;;4.20
12854;BMP180;6495;51.808;7.478;2023-01-31T06:09:23;101511.00;;;4.20
12854;BMP180;6495;51.808;7.478;2023-01-31T06:11:52;101517.00;;;4.20
12854;BMP180;6495;51.808;7.478;2023-01-31T06:14:20;101516.00;;;4.20
12854;BMP180;6495;51.808;7.478;2023-01-31T06:16:48;101529.00;;;4.20
12854;BMP180;6495;51.808;7.478;2023-01-31T06:19:16;101522.00;;;4.20
12854;BMP180;6495;51.808;7.478;2023-01-31T06:21:44;101523.00;;;4.20
12854;BMP180;6495;51.808;7.478;2023-01-31T06:24:12;101529.00;;;4.20
12854;BMP180;6495;51.808;7.478;2023-01-31T06:26:42;101516.00;;;4.30
12854;BMP180;6495;51.808;7.478;2023-01-31T06:29:10;101524.00;;;4.30
12854;BMP180;6495;51.808;7.478;2023-01-31T06:31:42;101539.00;;;4.30
12854;BMP180;6495;51.808;7.478;2023-01-31T06:34:10;101535.00;;;4.30
12854;BMP180;6495;51.808;7.478;2023-01-31T06:36:39;101556.00;;;4.30
12854;BMP180;6495;51.808;7.478;2023-01-31T06:39:09;101548.00;;;4.40
12854;BMP180;6495;51.808;7.478;2023-01-31T06:41:38;101541.00;;;4.40
12854;BMP180;6495;51.808;7.478;2023-01-31T06:44:08;101546.00;;;4.40
12854;BMP180;6495;51.808;7.478;2023-01-31T06:46:37;101546.00;;;4.40
12854;BMP180;6495;51.808;7.478;2023-01-31T06:49:05;101547.00;;;4.40
12854;BMP180;6495;51.808;7.478;2023-01-31T06:51:33;101560.00;;;4.40
12854;BMP180;6495;51.808;7.478;2023-01-31T06:54:02;101569.00;;;4.40
12854;BMP180;6495;51.808;7.478;2023-01-31T06:56:30;101561.00;;;4.40
12854;BMP180;6495;51.808;7.478;2023-01-31T06:58:58;101564.00;;;4.40
12854;BMP180;6495;51.808;7.478;2023-01-31T07:01:28;101553.00;;;4.40
12854;BMP180;6495;51.808;7.478;2023-01-31T07:03:56;101561.00;;;4.40
12854;BMP180;6495;51.808;7.478;2023-01-31T07:06:25;101549.00;;;4.40
12854;BMP180;6495;51.808;7.478;2023-01-31T07:08:53;101559.00;;;4.40
12854;BMP180;6495;51.808;7.478;2023-01-31T07:11:22;101559.00;;;4.40
12854;BMP180;6495;51.808;7.478;2023-01-31T07:13:50;101555.00;;;4.40
12854;BMP180;6495;51.808;7.478;2023-01-31T07:16:19;101555.00;;;4.40
12854;BMP180;6495;51.808;7.478;2023-01-31T07:18:53;101544.00;;;4.50
12854;BMP180;6495;51.808;7.478;2023-01-31T07:21:23;101549.00;;;4.40
12854;BMP180;6495;51.808;7.478;2023-01-31T07:23:52;101538.00;;;4.50
12854;BMP180;6495;51.808;7.478;2023-01-31T07:26:20;101544.00;;;4.50
12854;BMP180;6495;51.808;7.478;2023-01-31T07:28:48;101528.00;;;4.50
12854;BMP180;6495;51.808;7.478;2023-01-31T07:31:17;101534.00;;;4.50
12854;BMP180;6495;51.808;7.478;2023-01-31T07:33:47;101540.00;;;4.50
12854;BMP180;6495;51.808;7.478;2023-01-31T07:36:17;101536.00;;;4.50
12854;BMP180;6495;51.808;7.478;2023-01-31T07:38:53;101534.00;;;4.50
12854;BMP180;6495;51.808;7.478;2023-01-31T07:41:23;101530.00;;;4.50
12854;BMP180;6495;51.808;7.478;2023-01-31T07:43:52;101540.00;;;4.50
12854;BMP180;6495;51.808;7.478;2023-01-31T07:46:20;101534.00;;;4.60
12854;BMP180;6495;51.808;7.478;2023-01-31T07:48:48;101533.00;;;4.60
12854;BMP180;6495;51.808;7.478;2023-01-31T07:51:18;101534.00;;;4.60
12854;BMP180;6495;51.808;7.478;2023-01-31T07:53:46;101515.00;;;4.60
12854;BMP180;6495;51.808;7.478;2023-01-31T07:56:17;101521.00;;;4.70
12854;BMP180;6495;51.808;7.478;2023-01-31T07:58:48;101522.00;;;4.60
12854;BMP180;6495;51.808;7.478;2023-01-31T08:01:19;101517.00;;;4.60
12854;BMP180;6495;51.808;7.478;2023-01-31T08:04:07;101515.00;;;4.70
12854;BMP180;6495;51.808;7.478;2023-01-31T08:06:53;101518.00;;;4.70
12854;BMP180;6495;51.808;7.478;2023-01-31T08:09:22;101522.00;;;4.70
12854;BMP180;6495;51.808;7.478;2023-01-31T08:11:50;101515.00;;;4.70
12854;BMP180;6495;51.808;7.478;2023-01-31T08:14:19;101513.00;;;4.70
12854;BMP180;6495;51.808;7.478;2023-01-31T08:16:51;101502.00;;;4.70
12854;BMP180;6495;51.808;7.478;2023-01-31T08:19:20;101503.00;;;4.80
12854;BMP180;6495;51.808;7.478;2023-01-31T08:21:50;101508.00;;;4.80
12854;BMP180;6495;51.808;7.478;2023-01-31T08:24:18;101498.00;;;4.80
12854;BMP180;6495;51.808;7.478;2023-01-31T08:26:46;101497.00;;;4.80
12854;BMP180;6495;51.808;7.478;2023-01-31T08:29:15;101506.00;;;4.80
12854;BMP180;6495;51.808;7.478;2023-01-31T08:31:43;101493.00;;;4.80
12854;BMP180;6495;51.808;7.478;2023-01-31T08:34:12;101489.00;;;4.80
12854;BMP180;6495;51.808;7.478;2023-01-31T08:36:41;101483.00;;;4.80
12854;BMP180;6495;51.808;7.478;2023-01-31T08:39:11;101467.00;;;4.90
12854;BMP180;6495;51.808;7.478;2023-01-31T08:41:39;101470.00;;;4.80
12854;BMP180;6495;51.808;7.478;2023-01-31T08:44:11;101471.00;;;4.90
12854;BMP180;6495;51.808;7.478;2023-01-31T08:46:39;101473.00;;;4.90
12854;BMP180;6495;51.808;7.478;2023-01-31T08:49:08;101461.00;;;4.90
12854;BMP180;6495;51.808;7.478;2023-01-31T08:51:37;101457.00;;;4.90
12854;BMP180;6495;51.808;7.478;2023-01-31T08:54:05;101463.00;;;4.90
12854;BMP180;6495;51.808;7.478;2023-01-31T08:56:37;101467.00;;;4.90
12854;BMP180;6495;51.808;7.478;2023-01-31T08:59:06;101458.00;;;4.90
12854;BMP180;6495;51.808;7.478;2023-01-31T09:01:34;101475.00;;;4.90
12854;BMP180;6495;51.808;7.478;2023-01-31T09:04:02;101454.00;;;4.90
12854;BMP180;6495;51.808;7.478;2023-01-31T09:06:31;101458.00;;;4.90
12854;BMP180;6495;51.808;7.478;2023-01-31T09:08:59;101438.00;;;4.90
12854;BMP180;6495;51.808;7.478;2023-01-31T09:11:28;101436.00;;;4.90
12854;BMP180;6495;51.808;7.478;2023-01-31T09:13:59;101443.00;;;5.00
12854;BMP180;6495;51.808;7.478;2023-01-31T09:16:27;101430.00;;;5.00
12854;BMP180;6495;51.808;7.478;2023-01-31T09:18:56;101418.00;;;5.00
12854;BMP180;6495;51.808;7.478;2023-01-31T09:21:24;101427.00;;;5.10
12854;BMP180;6495;51.808;7.478;2023-01-31T09:23:58;101427.00;;;5.10
12854;BMP180;6495;51.808;7.478;2023-01-31T09:26:28;101419.00;;;5.10
12854;BMP180;6495;51.808;7.478;2023-01-31T09:28:59;101436.00;;;5.10
12854;BMP180;6495;51.808;7.478;2023-01-31T09:31:28;101428.00;;;5.10
12854;BMP180;6495;51.808;7.478;2023-01-31T09:33:57;101436.00;;;5.10
12854;BMP180;6495;51.808;7.478;2023-01-31T09:36:25;101443.00;;;5.10
12854;BMP180;6495;51.808;7.478;2023-01-31T09:38:56;101438.00;;;5.20
12854;BMP180;6495;51.808;7.478;2023-01-31T09:41:30;101426.00;;;5.20
12854;BMP180;6495;51.808;7.478;2023-01-31T09:44:06;101435.00;;;5.20
12854;BMP180;6495;51.808;7.478;2023-01-31T09:46:43;101423.00;;;5.20
12854;BMP180;6495;51.808;7.478;2023-01-31T09:49:19;101411.00;;;5.30
12854;BMP180;6495;51.808;7.478;2023-01-31T09:51:54;101423.00;;;5.30
12854;BMP180;6495;51.808;7.478;2023-01-31T09:54:28;101413.00;;;5.30
12854;BMP180;6495;51.808;7.478;2023-01-31T09:57:16;101406.00;;;5.30
12854;BMP180;6495;51.808;7.478;2023-01-31T09:59:58;101415.00;;;5.30
12854;BMP180;6495;51.808;7.478;2023-01-31T10:02:59;101410.00;;;5.30
12854;BMP180;6495;51.808;7.478;2023-01-31T10:05:38;101420.00;;;5.30
12854;BMP180;6495;51.808;7.478;2023-01-31T10:08:17;101411.00;;;5.30
12854;BMP180;6495;51.808;7.478;2023-01-31T10:10:51;101414.00;;;5.30
12854;BMP180;6495;51.808;7.478;2023-01-31T10:13:27;101403.00;;;5.30
12854;BMP180;6495;51.808;7.478;2023-01-31T10:16:08;101411.00;;;5.40
12854;BMP180;6495;51.808;7.478;2023-01-31T10:18:45;101409.00;;;5.40
12854;BMP180;6495;51.808;7.478;2023-01-31T10:21:21;101410.00;;;5.40
12854;BMP180;6495;51.808;7.478;2023-01-31T10:23:57;101416.00;;;5.40
12854;BMP180;6495;51.808;7.478;2023-01-31T10:26:30;101411.00;;;5.40
12854;BMP180;6495;51.808;7.478;2023-01-31T10:29:07;101404.00;;;5.40
12854;BMP180;6495;51.808;7.478;2023-01-31T10:31:45;101403.00;;;5.40
12854;BMP180;6495;51.808;7.478;2023-01-31T10:34:24;101407.00;;;5.40
12854;BMP180;6495;51.808;7.478;2023-01-31T10:36:59;101392.00;;;5.40
12854;BMP180;6495;51.808;7.478;2023-01-31T10:39:33;101392.00;;;5.40
12854;BMP180;6495;51.808;7.478;2023-01-31T10:42:14;101374.00;;;5.40
12854;BMP180;6495;51.808;7.478;2023-01-31T10:44:51;101378.00;;;5.40
12854;BMP180;6495;51.808;7.478;2023-01-31T10:47:31;101370.00;;;5.50
12854;BMP180;6495;51.808;7.478;2023-01-31T10:50:11;101382.00;;;5.50
12854;BMP180;6495;51.808;7.478;2023-01-31T10:52:55;101379.00;;;5.50
12854;BMP180;6495;51.808;7.478;2023-01-31T10:55:46;101370.00;;;5.50
12854;BMP180;6495;51.808;7.478;2023-01-31T10:58:18;101375.00;;;5.50
12854;BMP180;6495;51.808;7.478;2023-01-31T11:00:48;101371.00;;;5.50
12854;BMP180;6495;51.808;7.478;2023-01-31T11:03:18;101362.00;;;5.50
12854;BMP180;6495;51.808;7.478;2023-01-31T11:05:50;101357.00;;;5.50
12854;BMP180;6495;51.808;7.478;2023-01-31T11:08:32;101349.00;;;5.50
12854;BMP180;6495;51.808;7.478;2023-01-31T11:11:09;101345.00;;;5.60
12854;BMP180;6495;51.808;7.478;2023-01-31T11:13:38;101347.00;;;5.60
12854;BMP180;6495;51.808;7.478;2023-01-31T11:16:10;101342.00;;;5.60
12854;BMP180;6495;51.808;7.478;2023-01-31T11:18:46;101337.00;;;5.60
12854;BMP180;6495;51.808;7.478;2023-01-31T11:21:22;101335.00;;;5.60
12854;BMP180;6495;51.808;7.478;2023-01-31T11:23:58;101320.00;;;5.60
12854;BMP180;6495;51.808;7.478;2023-01-31T11:26:32;101326.00;;;5.60
12854;BMP180;6495;51.808;7.478;2023-01-31T11:29:06;101323.00;;;5.70
12854;BMP180;6495;51.808;7.478;2023-01-31T11:31:42;101308.00;;;5.70
12854;BMP180;6495;51.808;7.478;2023-01-31T11:34:21;101316.00;;;5.70
12854;BMP180;6495;51.808;7.478;2023-01-31T11:36:51;101303.00;;;5.70
12854;BMP180;6495;51.808;7.478;2023-01-31T11:39:29;101316.00;;;5.70
12854;BMP180;6495;51.808;7.478;2023-01-31T11:42:06;101322.00;;;5.70
12854;BMP180;6495;51.808;7.478;2023-01-31T11:44:35;101320.00;;;5.80
12854;BMP180;6495;51.808;7.478;2023-01-31T11:47:10;101321.00;;;5.80
12854;BMP180;6495;51.808;7.478;2023-01-31T11:49:42;101314.00;;;5.80
12854;BMP180;6495;51.808;7.478;2023-01-31T11:52:15;101310.00;;;5.80
12854;BMP180;6495;51.808;7.478;2023-01-31T11:54:49;101304.00;;;5.80
12854;BMP180;6495;51.808;7.478;2023-01-31T11:57:23;101293.00;;;5.80
12854;BMP180;6495;51.808;7.478;2023-01-31T11:59:56;101297.00;;;5.90
12854;BMP180;6495;51.808;7.478;2023-01-31T12:02:34;101295.00;;;5.90
12854;BMP180;6495;51.808;7.478;2023-01-31T12:05:14;101293.00;;;5.90
12854;BMP180;6495;51.808;7.478;2023-01-31T12:07:47;101285.00;;;5.90
12854;BMP180;6495;51.808;7.478;2023-01-31T12:10:29;101285.00;;;5.90
12854;BMP180;6495;51.808;7.478;2023-01-31T12:13:01;101285.00;;;6.00
12854;BMP180;6495;51.808;7.478;2023-01-31T12:15:50;101282.00;;;6.00
12854;BMP180;6495;51.808;7.478;2023-01-31T12:18:41;101276.00;;;6.00
12854;BMP180;6495;51.808;7.478;2023-01-31T12:21:16;101259.00;;;6.00
12854;BMP180;6495;51.808;7.478;2023-01-31T12:24:05;101263.00;;;6.00
12854;BMP180;6495;51.808;7.478;2023-01-31T12:26:46;101254.00;;;6.00
12854;BMP180;6495;51.808;7.478;2023-01-31T12:29:40;101263.00;;;6.00
12854;BMP180;6495;51.808;7.478;2023-01-31T12:32:34;101255.00;;;6.00
12854;BMP180;6495;51.808;7.478;2023-01-31T12:35:38;101242.00;;;6.00
12854;BMP180;6495;51.808;7.478;2023-01-31T12:38:25;101256.00;;;6.10
12854;BMP180;6495;51.808;7.478;2023-01-31T12:41:15;101260.00;;;6.10
12854;BMP180;6495;51.808;7.478;2023-01-31T12:44:06;101253.00;;;6.10
12854;BMP180;6495;51.808;7.478;2023-01-31T12:46:57;101242.00;;;6.10
12854;BMP180;6495;51.808;7.478;2023-01-31T12:50:11;101253.00;;;6.10
12854;BMP180;6495;51.808;7.478;2023-01-31T12:53:07;101243.00;;;6.10
12854;BMP180;6495;51.808;7.478;2023-01-31T12:55:48;101253.00;;;6.10
12854;BMP180;6495;51.808;7.478;2023-01-31T12:58:38;101246.00;;;6.10
12854;BMP180;6495;51.808;7.478;2023-01-31T13:01:14;101248.00;;;6.10
12854;BMP180;6495;51.808;7.478;2023-01-31T13:04:01;101256.00;;;6.10
12854;BMP180;6495;51.808;7.478;2023-01-31T13:06:38;101243.00;;;6.10
12854;BMP180;6495;51.808;7.478;2023-01-31T13:09:14;101248.00;;;6.10
12854;BMP180;6495;51.808;7.478;2023-01-31T13:11:51;101246.00;;;6.10
12854;BMP180;6495;51.808;7.478;2023-01-31T13:14:25;101263.00;;;6.10
12854;BMP180;6495;51.808;7.478;2023-01-31T13:17:00;101260.00;;;6.10
12854;BMP180;6495;51.808;7.478;2023-01-31T13:19:37;101263.00;;;6.20
12854;BMP180;6495;51.808;7.478;2023-01-31T13:22:16;101257.00;;;6.20
12854;BMP180;6495;51.808;7.478;2023-01-31T13:24:52;101251.00;;;6.20
12854;BMP180;6495;51.808;7.478;2023-01-31T13:27:30;101251.00;;;6.20
12854;BMP180;6495;51.808;7.478;2023-01-31T13:30:05;101244.00;;;6.20
12854;BMP180;6495;51.808;7.478;2023-01-31T13:32:44;101235.00;;;6.20
12854;BMP180;6495;51.808;7.478;2023-01-31T13:35:17;101230.00;;;6.20
12854;BMP180;6495;51.808;7.478;2023-01-31T13:37:58;101230.00;;;6.20
12854;BMP180;6495;51.808;7.478;2023-01-31T13:40:31;101242.00;;;6.20
12854;BMP180;6495;51.808;7.478;2023-01-31T13:43:13;101224.00;;;6.20
12854;BMP180;6495;51.808;7.478;2023-01-31T13:45:45;101227.00;;;6.20
12854;BMP180;6495;51.808;7.478;2023-01-31T13:48:26;101235.00;;;6.20
12854;BMP180;6495;51.808;7.478;2023-01-31T13:51:02;101227.00;;;6.20
12854;BMP180;6495;51.808;7.478;2023-01-31T13:53:44;101239.00;;;6.20
12854;BMP180;6495;51.808;7.478;2023-01-31T13:56:22;101238.00;;;6.30
12854;BMP180;6495;51.808;7.478;2023-01-31T13:58:54;101242.00;;;6.30
12854;BMP180;6495;51.808;7.478;2023-01-31T14:01:26;101228.00;;;6.30
12854;BMP180;6495;51.808;7.478;2023-01-31T14:04:35;101230.00;;;6.30
12854;BMP180;6495;51.808;7.478;2023-01-31T14:07:22;101216.00;;;6.30
12854;BMP180;6495;51.808;7.478;2023-01-31T14:10:27;101240.00;;;6.40
12854;BMP180;6495;51.808;7.478;2023-01-31T14:13:37;101232.00;;;6.30
12854;BMP180;6495;51.808;7.478;2023-01-31T14:16:38;101227.00;;;6.30
12854;BMP180;6495;51.808;7.478;2023-01-31T14:22:36;101233.00;;;6.30
12854;BMP180;6495;51.808;7.478;2023-01-31T14:25:14;101224.00;;;6.30
12854;BMP180;6495;51.808;7.478;2023-01-31T14:27:59;101230.00;;;6.30
12854;BMP180;6495;51.808;7.478;2023-01-31T14:30:38;101254.00;;;6.30
12854;BMP180;6495;51.808;7.478;2023-01-31T14:33:18;101250.00;;;6.30
12854;BMP180;6495;51.808;7.478;2023-01-31T14:36:17;101241.00;;;6.40
12854;BMP180;6495;51.808;7.478;2023-01-31T14:39:39;101239.00;;;6.40
12854;BMP180;6495;51.808;7.478;2023-01-31T14:42:54;101232.00;;;6.40
12854;BMP180;6495;51.808;7.478;2023-01-31T14:45:49;101246.00;;;6.40
12854;BMP180;6495;51.808;7.478;2023-01-31T14:48:44;101246.00;;;6.40
12854;BMP180;6495;51.808;7.478;2023-01-31T14:51:25;101241.00;;;6.40
12854;BMP180;6495;51.808;7.478;2023-01-31T14:54:30;101244.00;;;6.40
12854;BMP180;6495;51.808;7.478;2023-01-31T14:57:13;101253.00;;;6.40
12854;BMP180;6495;51.808;7.478;2023-01-31T14:59:53;101264.00;;;6.40
12854;BMP180;6495;51.808;7.478;2023-01-31T15:02:46;101259.00;;;6.40
12854;BMP180;6495;51.808;7.478;2023-01-31T15:05:22;101257.00;;;6.40
12854;BMP180;6495;51.808;7.478;2023-01-31T15:08:29;101263.00;;;6.50
12854;BMP180;6495;51.808;7.478;2023-01-31T15:10:59;101260.00;;;6.40
12854;BMP180;6495;51.808;7.478;2023-01-31T15:13:48;101257.00;;;6.50
12854;BMP180;6495;51.808;7.478;2023-01-31T15:16:22;101264.00;;;6.50